createdAt,value
2022-12-01T00:01:44.740Z,22.47
2022-12-01T00:04:11.119Z,23.90
2022-12-01T00:06:37.391Z,21.10
2022-12-01T00:09:22.161Z,21.57
2022-12-01T00:11:48.694Z,22.80
2022-12-01T00:14:16.267Z,22.83
2022-12-01T00:16:44.455Z,21.23
2022-12-01T00:19:10.907Z,20.50
2022-12-01T00:21:37.161Z,22.00
2022-12-01T00:24:03.510Z,22.03
2022-12-01T00:26:29.803Z,20.77
2022-12-01T00:28:59.219Z,19.30
2022-12-01T00:31:25.714Z,18.73
2022-12-01T00:33:52.155Z,17.27
2022-12-01T00:36:18.594Z,18.57
2022-12-01T00:38:45.042Z,19.20
2022-12-01T00:41:11.332Z,20.17
2022-12-01T00:43:37.763Z,18.87
2022-12-01T00:46:04.151Z,18.30
2022-12-01T00:48:30.428Z,20.33
2022-12-01T00:50:56.728Z,18.40
2022-12-01T00:53:23.411Z,19.17
2022-12-01T00:55:49.738Z,19.73
2022-12-01T00:58:16.209Z,19.40
2022-12-01T01:00:42.929Z,21.37
2022-12-01T01:03:09.897Z,20.87
2022-12-01T01:05:40.063Z,17.87
2022-12-01T01:08:07.602Z,22.13
2022-12-01T01:10:34.218Z,18.47
2022-12-01T01:13:00.493Z,18.30
2022-12-01T01:15:26.732Z,18.37
2022-12-01T01:17:52.990Z,20.03
2022-12-01T01:20:19.254Z,18.87
2022-12-01T01:22:45.474Z,17.60
2022-12-01T01:25:11.723Z,20.00
2022-12-01T01:27:37.964Z,18.50
2022-12-01T01:30:04.547Z,17.83
2022-12-01T01:32:30.821Z,19.10
2022-12-01T01:34:57.079Z,16.77
2022-12-01T01:37:23.377Z,18.27
2022-12-01T01:39:49.931Z,17.53
2022-12-01T01:42:18.412Z,18.67
2022-12-01T01:44:50.573Z,18.03
2022-12-01T01:47:18.842Z,19.73
2022-12-01T01:49:45.127Z,17.40
2022-12-01T01:52:11.458Z,18.90
2022-12-01T01:54:40.029Z,20.17
2022-12-01T01:57:07.595Z,16.93
2022-12-01T01:59:42.707Z,17.73
2022-12-01T02:02:10.503Z,17.90
2022-12-01T02:04:38.515Z,19.23
2022-12-01T02:07:05.285Z,21.13
2022-12-01T02:09:31.581Z,18.23
2022-12-01T02:11:57.867Z,19.93
2022-12-01T02:14:26.874Z,22.20
2022-12-01T02:16:57.264Z,22.40
2022-12-01T02:19:40.975Z,19.87
2022-12-01T02:22:18.977Z,23.13
2022-12-01T02:24:51.011Z,23.63
2022-12-01T02:27:23.819Z,21.97
2022-12-01T02:29:50.371Z,22.97
2022-12-01T02:32:23.073Z,24.17
2022-12-01T02:34:49.381Z,24.90
2022-12-01T02:37:24.687Z,25.53
2022-12-01T02:40:02.239Z,29.63
2022-12-01T02:42:49.599Z,27.07
2022-12-01T02:45:39.074Z,25.43
2022-12-01T02:48:09.106Z,27.23
2022-12-01T02:50:36.477Z,30.97
2022-12-01T02:53:04.274Z,28.03
2022-12-01T02:55:30.637Z,29.40
2022-12-01T02:57:56.919Z,31.77
2022-12-01T03:00:23.251Z,29.43
2022-12-01T03:02:51.691Z,32.77
2022-12-01T03:05:26.305Z,31.23
2022-12-01T03:08:14.719Z,30.47
2022-12-01T03:10:41.014Z,32.63
2022-12-01T03:13:07.235Z,35.47
2022-12-01T03:15:51.866Z,36.87
2022-12-01T03:18:18.150Z,37.53
2022-12-01T03:20:59.291Z,38.13
2022-12-01T03:23:27.978Z,39.33
2022-12-01T03:25:55.668Z,38.53
2022-12-01T03:28:23.727Z,38.63
2022-12-01T03:30:55.683Z,43.40
2022-12-01T03:33:27.601Z,44.67
2022-12-01T03:35:53.828Z,40.30
2022-12-01T03:38:30.243Z,38.20
2022-12-01T03:41:01.550Z,37.27
2022-12-01T03:43:30.227Z,38.43
2022-12-01T03:46:00.169Z,39.10
2022-12-01T03:48:26.967Z,41.60
2022-12-01T03:51:00.455Z,43.23
2022-12-01T03:53:28.575Z,39.50
2022-12-01T03:56:02.609Z,38.83
2022-12-01T03:58:34.089Z,41.17
2022-12-01T04:01:04.174Z,37.80
2022-12-01T04:03:31.014Z,39.67
2022-12-01T04:05:58.135Z,37.40
2022-12-01T04:08:25.119Z,36.30
2022-12-01T04:10:51.341Z,37.97
2022-12-01T04:13:23.127Z,40.23
2022-12-01T04:15:50.448Z,37.93
2022-12-01T04:18:16.962Z,37.63
2022-12-01T04:20:44.742Z,37.10
2022-12-01T04:23:11.104Z,36.03
2022-12-01T04:25:37.307Z,39.77
2022-12-01T04:28:03.579Z,38.10
2022-12-01T04:30:29.854Z,38.30
2022-12-01T04:32:57.537Z,37.33
2022-12-01T04:35:23.866Z,38.90
2022-12-01T04:37:50.169Z,33.73
2022-12-01T04:40:16.650Z,34.00
2022-12-01T04:42:43.038Z,40.80
2022-12-01T04:45:09.673Z,38.87
2022-12-01T04:47:35.924Z,38.17
2022-12-01T04:50:02.199Z,35.67
2022-12-01T04:52:34.900Z,41.93
2022-12-01T04:55:01.598Z,46.80
2022-12-01T04:57:46.483Z,46.37
2022-12-01T05:00:13.300Z,45.40
2022-12-01T05:02:43.146Z,45.63
2022-12-01T05:05:13.920Z,45.43
2022-12-01T05:07:40.547Z,48.80
2022-12-01T05:10:07.213Z,45.20
2022-12-01T05:12:33.454Z,45.43
2022-12-01T05:14:59.725Z,48.23
2022-12-01T05:17:25.979Z,47.97
2022-12-01T05:20:11.163Z,49.27
2022-12-01T05:23:04.309Z,47.80
2022-12-01T05:25:23.716Z,56.90
2022-12-01T05:27:50.023Z,64.57
2022-12-01T05:30:16.355Z,51.90
2022-12-01T05:32:42.608Z,49.00
2022-12-01T05:35:09.006Z,51.20
2022-12-01T05:37:35.242Z,49.03
2022-12-01T05:40:01.677Z,50.10
2022-12-01T05:42:28.021Z,58.97
2022-12-01T05:44:54.237Z,52.60
2022-12-01T05:47:20.493Z,52.80
2022-12-01T05:49:47.344Z,54.23
2022-12-01T05:52:13.746Z,60.90
2022-12-01T05:54:40.200Z,60.83
2022-12-01T05:57:06.481Z,58.57
2022-12-01T05:59:32.715Z,55.07
2022-12-01T06:01:59.031Z,63.10
2022-12-01T06:04:25.341Z,59.10
2022-12-01T06:06:51.582Z,63.53
2022-12-01T06:09:17.886Z,60.60
2022-12-01T06:11:44.179Z,61.17
2022-12-01T06:14:10.449Z,64.13
2022-12-01T06:16:36.722Z,57.27
2022-12-01T06:19:02.977Z,58.90
2022-12-01T06:21:29.382Z,55.53
2022-12-01T06:23:55.627Z,58.80
2022-12-01T06:26:21.918Z,51.73
2022-12-01T06:28:48.294Z,49.20
2022-12-01T06:31:14.589Z,48.37
2022-12-01T06:33:40.836Z,52.13
2022-12-01T06:36:07.398Z,53.77
2022-12-01T06:38:34.813Z,50.93
2022-12-01T06:41:01.235Z,51.87
2022-12-01T06:43:27.689Z,49.10
2022-12-01T06:45:59.441Z,49.00
2022-12-01T06:48:27.721Z,49.73
2022-12-01T06:50:56.532Z,50.23
2022-12-01T06:53:22.807Z,47.40
2022-12-01T06:55:49.326Z,43.80
2022-12-01T06:58:16.289Z,58.13
2022-12-01T07:00:45.378Z,59.80
2022-12-01T07:03:15.339Z,49.63
2022-12-01T07:05:41.623Z,48.93
2022-12-01T07:08:08.072Z,47.13
2022-12-01T07:10:34.328Z,46.17
2022-12-01T07:13:00.571Z,44.77
2022-12-01T07:15:28.594Z,42.97
2022-12-01T07:17:54.922Z,42.73
2022-12-01T07:20:21.254Z,42.63
2022-12-01T07:22:47.523Z,42.30
2022-12-01T07:25:14.074Z,42.63
2022-12-01T07:27:40.396Z,39.63
2022-12-01T07:30:06.902Z,51.93
2022-12-01T07:32:33.171Z,40.63
2022-12-01T07:34:59.408Z,39.63
2022-12-01T07:37:25.685Z,38.67
2022-12-01T07:39:52.169Z,37.87
2022-12-01T07:42:18.467Z,36.67
2022-12-01T07:44:44.766Z,37.23
2022-12-01T07:47:10.985Z,36.30
2022-12-01T07:49:37.677Z,39.23
2022-12-01T07:52:04.117Z,38.07
2022-12-01T07:54:30.348Z,36.90
2022-12-01T07:56:56.617Z,34.80
2022-12-01T07:59:22.927Z,35.10
2022-12-01T08:01:49.200Z,34.58
2022-12-01T08:04:15.681Z,34.60
2022-12-01T08:06:42.025Z,35.90
2022-12-01T08:09:08.287Z,36.53
2022-12-01T08:11:35.837Z,34.30
2022-12-01T08:14:02.112Z,35.17
2022-12-01T08:16:28.430Z,33.93
2022-12-01T08:18:54.879Z,37.27
2022-12-01T08:21:22.077Z,34.33
2022-12-01T08:23:48.762Z,30.83
2022-12-01T08:26:15.985Z,34.70
2022-12-01T08:28:42.794Z,30.67
2022-12-01T08:31:17.914Z,33.10
2022-12-01T08:33:44.422Z,34.00
2022-12-01T08:36:10.740Z,43.23
2022-12-01T08:38:37.079Z,32.27
2022-12-01T08:41:04.606Z,32.47
2022-12-01T08:43:56.693Z,31.67
2022-12-01T08:46:18.611Z,32.87
2022-12-01T08:48:45.005Z,32.13
2022-12-01T08:51:12.609Z,31.43
2022-12-01T08:53:45.174Z,32.87
2022-12-01T08:56:22.089Z,30.93
2022-12-01T08:58:48.399Z,31.30
2022-12-01T09:01:15.732Z,33.37
2022-12-01T09:03:42.410Z,35.50
2022-12-01T09:06:11.735Z,35.33
2022-12-01T09:08:38.312Z,36.07
2022-12-01T09:11:15.671Z,34.20
2022-12-01T09:13:43.062Z,38.37
2022-12-01T09:16:13.781Z,35.63
2022-12-01T09:18:40.249Z,36.97
2022-12-01T09:21:13.092Z,36.63
2022-12-01T09:23:39.560Z,37.90
2022-12-01T09:26:08.683Z,44.73
2022-12-01T09:28:37.180Z,56.97
2022-12-01T09:31:07.210Z,41.87
2022-12-01T09:33:34.022Z,43.70
2022-12-01T09:36:01.163Z,41.40
2022-12-01T09:38:30.814Z,41.27
2022-12-01T09:40:59.321Z,38.93
2022-12-01T09:43:27.578Z,37.47
2022-12-01T09:46:00.736Z,39.67
2022-12-01T09:48:29.818Z,37.80
2022-12-01T09:50:56.278Z,37.37
2022-12-01T09:53:24.737Z,35.83
2022-12-01T09:55:51.190Z,40.70
2022-12-01T09:58:18.583Z,37.83
2022-12-01T10:00:45.903Z,37.17
2022-12-01T10:03:46.346Z,34.93
2022-12-01T10:06:32.093Z,33.60
2022-12-01T10:09:03.288Z,35.10
2022-12-01T10:11:36.904Z,31.67
2022-12-01T10:14:04.010Z,32.60
2022-12-01T10:16:35.443Z,35.00
2022-12-01T10:19:05.881Z,35.33
2022-12-01T10:21:50.578Z,32.73
2022-12-01T10:24:23.114Z,28.53
2022-12-01T10:26:53.595Z,30.77
2022-12-01T10:29:35.197Z,33.13
2022-12-01T10:32:05.759Z,33.63
2022-12-01T10:34:33.487Z,34.90
2022-12-01T10:36:59.734Z,30.13
2022-12-01T10:39:30.504Z,42.10
2022-12-01T10:42:01.544Z,44.70
2022-12-01T10:44:28.212Z,26.27
2022-12-01T10:46:55.401Z,26.83
2022-12-01T10:52:02.991Z,26.67
2022-12-01T10:54:34.881Z,26.37
2022-12-01T10:57:01.887Z,29.10
2022-12-01T10:59:28.116Z,25.43
2022-12-01T11:01:54.987Z,24.13
2022-12-01T11:04:29.428Z,23.67
2022-12-01T11:06:55.723Z,24.60
2022-12-01T11:09:26.558Z,22.60
2022-12-01T11:12:13.427Z,22.43
2022-12-01T11:14:42.769Z,25.60
2022-12-01T11:17:28.208Z,25.83
2022-12-01T11:19:54.754Z,25.00
2022-12-01T11:22:23.527Z,28.03
2022-12-01T11:24:52.595Z,24.27
2022-12-01T11:27:23.373Z,24.83
2022-12-01T11:29:51.518Z,22.93
2022-12-01T11:32:28.989Z,22.60
2022-12-01T11:34:58.222Z,25.23
2022-12-01T11:37:27.553Z,25.70
2022-12-01T11:39:53.947Z,26.10
2022-12-01T11:42:25.884Z,27.13
2022-12-01T11:45:12.410Z,22.77
2022-12-01T11:47:57.315Z,38.07
2022-12-01T11:50:24.898Z,24.47
2022-12-01T11:52:51.126Z,21.93
2022-12-01T11:55:17.390Z,22.53
2022-12-01T11:57:44.957Z,23.47
2022-12-01T12:00:14.419Z,21.73
2022-12-01T12:02:45.754Z,22.33
2022-12-01T12:05:15.064Z,24.90
2022-12-01T12:07:54.251Z,24.87
2022-12-01T12:10:41.154Z,22.77
2022-12-01T12:13:16.820Z,23.93
2022-12-01T12:15:55.491Z,22.90
2022-12-01T12:18:34.052Z,19.83
2022-12-01T12:21:20.818Z,21.00
2022-12-01T12:24:07.363Z,25.67
2022-12-01T12:26:43.563Z,21.20
2022-12-01T12:29:30.766Z,21.13
2022-12-01T12:31:57.034Z,20.23
2022-12-01T12:34:32.212Z,22.00
2022-12-01T12:36:58.624Z,23.53
2022-12-01T12:39:51.138Z,19.70
2022-12-01T12:42:36.177Z,20.60
2022-12-01T12:45:16.931Z,23.80
2022-12-01T12:47:46.242Z,23.77
2022-12-01T12:50:20.071Z,24.93
2022-12-01T12:52:48.938Z,19.90
2022-12-01T12:55:33.874Z,24.27
2022-12-01T12:58:07.963Z,21.03
2022-12-01T13:00:40.070Z,21.27
2022-12-01T13:03:15.070Z,21.43
2022-12-01T13:05:49.323Z,25.17
2022-12-01T13:08:24.074Z,23.10
2022-12-01T13:10:50.323Z,27.27
2022-12-01T13:13:23.084Z,25.73
2022-12-01T13:15:51.241Z,22.73
2022-12-01T13:18:36.431Z,25.73
2022-12-01T13:21:04.395Z,26.50
2022-12-01T13:23:30.924Z,31.43
2022-12-01T13:25:58.120Z,37.27
2022-12-01T13:28:27.247Z,32.47
2022-12-01T13:31:01.314Z,31.90
2022-12-01T13:33:27.899Z,30.30
2022-12-01T13:36:21.338Z,30.50
2022-12-01T13:38:41.198Z,30.10
2022-12-01T13:41:21.661Z,34.63
2022-12-01T13:44:20.459Z,40.23
2022-12-01T13:46:46.742Z,38.00
2022-12-01T13:49:33.676Z,33.83
2022-12-01T13:52:19.036Z,33.20
2022-12-01T13:55:10.774Z,44.27
2022-12-01T13:57:37.143Z,38.03
2022-12-01T14:00:06.723Z,35.63
2022-12-01T14:02:34.425Z,35.87
2022-12-01T14:05:19.636Z,36.77
2022-12-01T14:07:45.973Z,38.47
2022-12-01T14:10:23.813Z,36.07
2022-12-01T14:13:18.013Z,36.53
2022-12-01T14:15:44.990Z,35.47
2022-12-01T14:18:17.464Z,32.40
2022-12-01T14:20:45.570Z,33.33
2022-12-01T14:23:14.981Z,35.87
2022-12-01T14:25:41.890Z,34.87
2022-12-01T14:28:16.777Z,31.83
2022-12-01T14:30:45.559Z,34.20
2022-12-01T14:33:30.620Z,36.17
2022-12-01T14:35:58.726Z,43.00
2022-12-01T14:38:25.024Z,40.33
2022-12-01T14:40:52.419Z,35.87
2022-12-01T14:43:38.760Z,35.23
2022-12-01T14:46:07.871Z,35.30
2022-12-01T14:48:45.376Z,33.57
2022-12-01T14:51:27.061Z,33.60
2022-12-01T14:53:54.396Z,32.67
2022-12-01T14:56:22.563Z,35.43
2022-12-01T14:58:56.270Z,35.93
2022-12-01T15:01:23.669Z,35.10
2022-12-01T15:03:51.457Z,36.37
2022-12-01T15:06:18.870Z,38.40
2022-12-01T15:09:04.184Z,38.97
2022-12-01T15:11:32.049Z,38.23
2022-12-01T15:13:58.367Z,35.57
2022-12-01T15:16:25.911Z,34.63
2022-12-01T15:18:52.326Z,35.83
2022-12-01T15:21:23.476Z,31.23
2022-12-01T15:24:08.319Z,34.00
2022-12-01T15:26:36.460Z,36.70
2022-12-01T15:29:12.588Z,38.37
2022-12-01T15:31:39.142Z,39.23
2022-12-01T15:34:05.633Z,36.67
2022-12-01T15:36:32.159Z,38.13
2022-12-01T15:39:06.759Z,42.20
2022-12-01T15:41:34.279Z,39.93
2022-12-01T15:44:05.334Z,41.00
2022-12-01T15:46:34.157Z,41.63
2022-12-01T15:49:17.180Z,41.00
2022-12-01T15:51:43.525Z,41.40
2022-12-01T15:54:17.151Z,40.00
2022-12-01T15:56:44.334Z,39.30
2022-12-01T15:59:13.700Z,40.63
2022-12-01T16:01:44.020Z,38.33
2022-12-01T16:04:17.988Z,39.97
2022-12-01T16:06:51.559Z,43.03
2022-12-01T16:09:36.532Z,51.67
2022-12-01T16:12:23.226Z,39.67
2022-12-01T16:14:55.012Z,41.73
2022-12-01T16:17:21.838Z,37.67
2022-12-01T16:19:48.145Z,40.33
2022-12-01T16:22:16.567Z,35.80
2022-12-01T16:24:47.623Z,35.07
2022-12-01T16:27:18.577Z,29.53
2022-12-01T16:29:49.983Z,32.47
2022-12-01T16:32:22.463Z,39.33
2022-12-01T16:34:49.962Z,32.33
2022-12-01T16:37:16.701Z,27.73
2022-12-01T16:39:43.003Z,26.70
2022-12-01T16:42:13.504Z,28.20
2022-12-01T16:44:40.024Z,27.97
2022-12-01T16:47:11.936Z,25.93
2022-12-01T16:49:38.196Z,25.87
2022-12-01T16:52:22.115Z,25.50
2022-12-01T16:54:50.904Z,25.60
2022-12-01T16:57:17.363Z,28.93
2022-12-01T16:59:44.155Z,30.90
2022-12-01T17:02:11.065Z,31.50
2022-12-01T17:04:37.464Z,34.03
2022-12-01T17:07:04.198Z,33.33
2022-12-01T17:09:30.486Z,32.53
2022-12-01T17:11:57.187Z,35.80
2022-12-01T17:14:23.615Z,34.33
2022-12-01T17:16:49.924Z,33.60
2022-12-01T17:19:16.454Z,34.53
2022-12-01T17:21:42.701Z,32.70
2022-12-01T17:24:09.487Z,36.63
2022-12-01T17:26:35.853Z,41.80
2022-12-01T17:29:02.253Z,35.53
2022-12-01T17:31:28.627Z,33.07
2022-12-01T17:33:54.958Z,36.33
2022-12-01T17:36:21.203Z,33.43
2022-12-01T17:38:47.747Z,35.63
2022-12-01T17:41:15.815Z,33.93
2022-12-01T17:43:42.413Z,33.77
2022-12-01T17:46:10.195Z,35.07
2022-12-01T17:48:40.740Z,32.07
2022-12-01T17:51:07.164Z,35.63
2022-12-01T17:53:33.511Z,32.83
2022-12-01T17:55:59.732Z,33.10
2022-12-01T17:58:26.016Z,34.63
2022-12-01T18:00:52.874Z,36.00
2022-12-01T18:03:19.696Z,36.43
2022-12-01T18:05:53.790Z,34.57
2022-12-01T18:08:20.011Z,40.07
2022-12-01T18:10:46.214Z,34.57
2022-12-01T18:13:12.460Z,36.27
2022-12-01T18:15:39.070Z,38.37
2022-12-01T18:18:05.381Z,39.40
2022-12-01T18:20:31.622Z,38.67
2022-12-01T18:22:57.866Z,38.03
2022-12-01T18:25:24.119Z,39.13
2022-12-01T18:27:53.262Z,37.93
2022-12-01T18:30:19.540Z,38.07
2022-12-01T18:32:45.850Z,38.37
2022-12-01T18:35:12.069Z,41.33
2022-12-01T18:37:40.229Z,37.93
2022-12-01T18:40:07.341Z,46.30
2022-12-01T18:42:33.563Z,44.40
2022-12-01T18:44:59.855Z,45.93
2022-12-01T18:47:26.151Z,40.23
2022-12-01T18:49:52.420Z,38.27
2022-12-01T18:52:18.751Z,40.60
2022-12-01T18:54:45.054Z,41.13
2022-12-01T18:57:11.952Z,42.17
2022-12-01T18:59:38.251Z,40.37
2022-12-01T19:02:04.579Z,46.43
2022-12-01T19:04:30.912Z,47.43
2022-12-01T19:06:57.263Z,51.43
2022-12-01T19:09:23.552Z,52.23
2022-12-01T19:11:49.893Z,55.40
2022-12-01T19:14:17.433Z,54.63
2022-12-01T19:16:44.370Z,58.03
2022-12-01T19:19:10.953Z,57.23
2022-12-01T19:21:37.262Z,57.83
2022-12-01T19:24:03.592Z,55.10
2022-12-01T19:26:29.827Z,61.13
2022-12-01T19:28:56.084Z,62.43
2022-12-01T19:31:23.970Z,63.60
2022-12-01T19:33:50.380Z,62.50
2022-12-01T19:36:18.503Z,60.57
2022-12-01T19:38:45.145Z,48.33
2022-12-01T19:41:12.353Z,45.30
2022-12-01T19:43:39.042Z,41.13
2022-12-01T19:46:09.300Z,42.03
2022-12-01T19:48:35.638Z,40.93
2022-12-01T19:51:02.178Z,38.33
2022-12-01T19:53:33.291Z,54.00
2022-12-01T19:56:04.328Z,47.23
2022-12-01T19:58:33.715Z,42.83
2022-12-01T20:01:05.014Z,43.80
2022-12-01T20:03:31.300Z,40.63
2022-12-01T20:06:01.441Z,42.67
2022-12-01T20:08:27.791Z,44.27
2022-12-01T20:10:54.097Z,44.20
2022-12-01T20:13:20.405Z,42.70
2022-12-01T20:15:46.688Z,43.17
2022-12-01T20:18:14.536Z,44.27
2022-12-01T20:20:40.768Z,46.60
2022-12-01T20:23:07.092Z,44.67
2022-12-01T20:25:34.013Z,49.67
2022-12-01T20:28:00.578Z,40.77
2022-12-01T20:30:26.943Z,40.40
2022-12-01T20:32:53.354Z,42.67
2022-12-01T20:35:19.713Z,38.00
2022-12-01T20:37:46.015Z,36.73
2022-12-01T20:40:12.439Z,39.53
2022-12-01T20:42:39.653Z,36.40
2022-12-01T20:45:07.031Z,35.27
2022-12-01T20:47:36.493Z,31.83
2022-12-01T20:50:04.405Z,33.83
2022-12-01T20:52:30.821Z,31.90
2022-12-01T20:54:57.134Z,31.37
2022-12-01T20:57:23.399Z,32.97
2022-12-01T20:59:49.729Z,33.83
2022-12-01T21:02:16.063Z,31.40
2022-12-01T21:04:42.408Z,34.60
2022-12-01T21:07:08.970Z,37.67
2022-12-01T21:09:35.254Z,40.97
2022-12-01T21:12:21.052Z,38.97
2022-12-01T21:14:49.089Z,39.17
2022-12-01T21:17:19.581Z,41.70
2022-12-01T21:20:01.361Z,37.23
2022-12-01T21:22:27.659Z,36.27
2022-12-01T21:24:59.911Z,34.27
2022-12-01T21:27:28.251Z,36.30
2022-12-01T21:29:55.186Z,30.97
2022-12-01T21:32:33.067Z,30.97
2022-12-01T21:35:08.289Z,31.13
2022-12-01T21:37:34.538Z,31.90
2022-12-01T21:40:00.742Z,31.63
2022-12-01T21:42:27.946Z,31.40
2022-12-01T21:44:55.647Z,27.90
2022-12-01T21:47:26.424Z,27.10
2022-12-01T21:49:53.913Z,29.27
2022-12-01T21:52:21.795Z,28.53
2022-12-01T21:54:48.983Z,31.70
2022-12-01T21:57:37.245Z,34.67
2022-12-01T22:00:22.767Z,32.47
2022-12-01T22:02:50.036Z,30.53
2022-12-01T22:05:36.654Z,30.97
2022-12-01T22:08:05.939Z,31.67
2022-12-01T22:10:51.076Z,32.57
2022-12-01T22:13:18.442Z,31.63
2022-12-01T22:15:44.772Z,29.50
2022-12-01T22:18:19.747Z,30.67
2022-12-01T22:20:45.976Z,33.97
2022-12-01T22:23:13.030Z,32.57
2022-12-01T22:25:40.270Z,31.50
2022-12-01T22:28:17.864Z,31.57
2022-12-01T22:30:44.343Z,33.30
2022-12-01T22:33:14.776Z,29.47
2022-12-01T22:35:45.270Z,30.73
2022-12-01T22:38:11.650Z,31.50
2022-12-01T22:40:37.947Z,31.37
2022-12-01T22:43:16.229Z,31.07
2022-12-01T22:46:02.770Z,33.30
2022-12-01T22:48:29.091Z,32.13
2022-12-01T22:50:56.323Z,32.57
2022-12-01T22:53:30.573Z,31.87
2022-12-01T22:55:59.415Z,32.77
2022-12-01T22:58:34.928Z,35.37
2022-12-01T23:01:02.357Z,34.80
2022-12-01T23:03:28.615Z,33.30
2022-12-01T23:05:56.033Z,35.30
2022-12-01T23:08:22.719Z,33.93
2022-12-01T23:10:49.361Z,34.77
2022-12-01T23:13:18.570Z,33.63
2022-12-01T23:15:45.366Z,36.50
2022-12-01T23:18:14.908Z,37.77
2022-12-01T23:20:42.056Z,36.70
2022-12-01T23:23:11.005Z,34.90
2022-12-01T23:25:37.300Z,37.27
2022-12-01T23:28:06.839Z,35.47
2022-12-01T23:30:34.137Z,36.63
2022-12-01T23:33:10.732Z,38.53
2022-12-01T23:35:55.717Z,34.23
2022-12-01T23:38:29.131Z,36.07
2022-12-01T23:40:57.242Z,36.17
2022-12-01T23:43:25.122Z,41.50
2022-12-01T23:45:58.255Z,37.43
2022-12-01T23:48:29.442Z,39.60
2022-12-01T23:50:55.761Z,39.93
2022-12-01T23:53:27.232Z,37.43
2022-12-01T23:55:53.655Z,42.43
2022-12-01T23:58:20.022Z,40.33
